Home   Weather   Houston Draw   Past weeks
Flag for USA

Past Weather in Houston Draw, Arizona, USA — Yesterday and Last 2 Weeks

Currently: 50 °F. Sunny. (Weather station: Payson, USA). See more current weather

Past Weather in Houston Draw — Graph

°F

Houston Draw Temperature Yesterday

Maximum temperature yesterday: 52 °F (at 3:55 pm)
Minimum temperature yesterday: 32 °F (at 6:35 am)
Average temperature yesterday: 40 °F

High & Low Weather Summary for the Past Weeks

 TemperatureHumidityPressure
High63 °F (Jan 13, 12:15 pm)100% (Jan 22, 7:55 pm)30.41 "Hg (Jan 22, 7:55 pm)
Low28 °F (Jan 21, 7:35 am)12% (Jan 16, 12:55 pm)29.95 "Hg (Jan 25, 2:35 pm)
Average43 °F43%30.16 "Hg
* Reported Jan 12 3:35 pm — Jan 27 3:55 pm, Houston Draw. Weather by CustomWeather, © 2022

Note: Actual official high and low records may vary slightly from our data, if they occured in-between our weather recording intervals... More about our weather records

Houston Draw Weather History for the Previous 24 Hours

Scroll right to see more
 ConditionsComfort  
Time TempWeatherWind HumidityBarometerVisibility
3:55 pm
Thu, Jan 27
54 °FSunny.7 mph21%30.19 "Hg10 mi
3:35 pm54 °FSunny.9 mph21%30.19 "Hg10 mi
3:15 pm54 °FSunny.7 mph19%30.18 "Hg10 mi
2:35 pm54 °FSunny.7 mph21%30.18 "Hg10 mi
2:15 pm52 °FSunny.7 mph22%30.17 "Hg10 mi
1:55 pm54 °FSunny.8 mph21%30.17 "Hg10 mi
1:35 pm52 °FSunny.7 mph20%30.18 "Hg10 mi
1:15 pm52 °FSunny.7 mph22%30.18 "Hg10 mi
12:35 pm50 °FSunny.3 mph24%30.20 "Hg10 mi
12:15 pm50 °FSunny.7 mph24%30.21 "Hg10 mi
11:55 am50 °FSunny.6 mph24%30.22 "Hg10 mi
11:15 am50 °FSunny.6 mph19%30.22 "Hg10 mi
10:55 am48 °FSunny.6 mph20%30.23 "Hg10 mi
10:35 am46 °FSunny.6 mph23%30.24 "Hg10 mi
10:15 am46 °FSunny.5 mph25%30.23 "Hg10 mi
9:35 am43 °FSunny.8 mph29%30.22 "Hg10 mi
8:55 am37 °FSunny.8 mph38%30.22 "Hg10 mi
8:35 am34 °FSunny.No wind44%30.21 "Hg10 mi
8:15 am34 °FSunny.5 mph41%30.20 "Hg10 mi
7:35 am30 °FSunny.No wind47%30.20 "Hg10 mi
7:15 am30 °FClear.No wind47%30.19 "Hg10 mi
6:55 am32 °FClear.No wind44%30.18 "Hg10 mi
6:35 am30 °FClear.No wind47%30.17 "Hg10 mi
6:15 am34 °FClear.No wind41%30.17 "Hg10 mi
5:55 am34 °FClear.No wind41%30.17 "Hg10 mi
5:35 am34 °FClear.6 mph41%30.17 "Hg10 mi
5:15 am34 °FClear.No wind44%30.17 "Hg10 mi
4:55 am34 °FClear.6 mph44%30.16 "Hg10 mi
4:35 am34 °FClear.6 mph44%30.16 "Hg10 mi
4:15 am32 °FClear.6 mph47%30.16 "Hg10 mi
3:55 am32 °FClear.3 mph47%30.16 "Hg10 mi
3:35 am32 °FClear.3 mph47%30.16 "Hg10 mi
3:15 am32 °FClear.No wind47%30.16 "Hg10 mi
2:55 am32 °FClear.No wind47%30.17 "Hg10 mi
2:35 am32 °FClear.No wind47%30.17 "Hg10 mi
2:15 am32 °FClear.No wind47%30.17 "Hg10 mi
1:35 am30 °FClear.3 mph55%30.17 "Hg10 mi
1:15 am32 °FClear.No wind51%30.17 "Hg10 mi
12:35 am30 °FClear.No wind55%30.18 "Hg10 mi
12:15 am32 °FClear.No wind51%30.18 "Hg10 mi
11:55 pm
Wed, Jan 26
32 °FClear.No wind51%30.18 "Hg10 mi
11:35 pm32 °FClear.No wind51%30.18 "Hg10 mi
10:55 pm32 °FClear.No wind51%30.18 "Hg10 mi
10:35 pm34 °FClear.No wind48%30.17 "Hg10 mi
10:15 pm34 °FClear.No wind48%30.17 "Hg10 mi
9:55 pm34 °FClear.No wind48%30.16 "Hg10 mi
9:35 pm37 °FClear.No wind41%30.17 "Hg10 mi
9:15 pm39 °FClear.5 mph39%30.17 "Hg10 mi
8:55 pm37 °FClear.No wind41%30.17 "Hg10 mi
8:35 pm39 °FClear.3 mph39%30.16 "Hg10 mi
8:15 pm39 °FClear.5 mph39%30.16 "Hg10 mi
7:35 pm39 °FClear.3 mph33%30.16 "Hg10 mi
7:15 pm41 °FClear.No wind31%30.15 "Hg10 mi
6:55 pm41 °FClear.5 mph31%30.14 "Hg10 mi
6:15 pm43 °FClear.No wind29%30.14 "Hg10 mi
5:55 pm45 °FClear.No wind27%30.14 "Hg10 mi
5:35 pm48 °FSunny.No wind21%30.14 "Hg10 mi
5:15 pm50 °FSunny.No wind19%30.14 "Hg10 mi
Weather by CustomWeather, © 2022

See weather overview